Time;durP1;ratioP1;P1;durP2;ratioP2;P2;SDS_P1;SDS_P2;PMS_P1;PMS_P2;Temp;Humidity;BMP_temperature;BMP_pressure;BME280_temperature;BME280_humidity;BME280_pressure;Samples;Min_cycle;Max_cycle;Signal;HPM_P1;HPM_P2
2022/06/15 00:00:59;;;;;;;7.47;5.10;;;13.20;99.90;;;;;;5075210;28;20268;-82
2022/06/15 00:03:27;;;;;;;11.68;4.80;;;13.20;99.90;;;;;;5090616;28;20500;-84
2022/06/15 00:06:10;;;;;;;5.50;3.75;;;13.10;99.90;;;;;;5108826;28;20048;-83
2022/06/15 00:08:37;;;;;;;8.18;4.70;;;13.10;99.90;;;;;;5107478;28;20047;-84
2022/06/15 00:11:06;;;;;;;9.55;5.90;;;13.00;99.90;;;;;;5108421;28;20079;-84
2022/06/15 00:13:32;;;;;;;9.88;4.97;;;12.90;99.90;;;;;;5108330;28;20051;-83
2022/06/15 00:15:58;;;;;;;8.75;5.63;;;12.90;99.90;;;;;;5090772;28;20047;-84
2022/06/15 00:18:26;;;;;;;9.38;4.88;;;13.80;99.90;;;;;;5091617;28;20044;-84
2022/06/15 00:20:57;;;;;;;7.80;4.43;;;12.80;99.90;;;;;;5107105;28;20101;-83
2022/06/15 00:23:24;;;;;;;6.90;5.22;;;12.80;99.90;;;;;;5108065;28;20040;-84
2022/06/15 00:25:51;;;;;;;9.25;5.60;;;12.70;99.90;;;;;;5073970;28;20075;-84
2022/06/15 00:28:16;;;;;;;9.55;5.95;;;12.70;99.90;;;;;;5091386;28;20488;-84
2022/06/15 00:30:44;;;;;;;13.45;5.75;;;12.60;99.90;;;;;;5091091;28;20086;-83
2022/06/15 00:33:10;;;;;;;11.45;5.65;;;12.50;99.90;;;;;;5107256;28;20070;-83
2022/06/15 00:35:36;;;;;;;8.82;5.13;;;12.50;99.90;;;;;;5091188;28;20408;-83
2022/06/15 00:38:01;;;;;;;9.57;5.18;;;12.40;99.90;;;;;;5089990;28;20051;-83
2022/06/15 00:40:27;;;;;;;7.78;5.03;;;12.40;99.90;;;;;;5074247;28;20112;-83
2022/06/15 00:42:53;;;;;;;11.73;5.70;;;12.40;99.90;;;;;;5090572;28;20047;-84
2022/06/15 00:45:19;;;;;;;9.30;5.22;;;12.30;99.90;;;;;;5090881;28;20048;-84
2022/06/15 00:47:46;;;;;;;8.93;5.38;;;12.30;99.90;;;;;;5073784;28;20039;-84
2022/06/15 00:50:24;;;;;;;12.48;4.88;;;12.30;99.90;;;;;;5107682;28;20054;-84
2022/06/15 00:52:59;;;;;;;9.45;4.30;;;12.20;99.90;;;;;;5108065;28;20122;-83
2022/06/15 00:55:30;;;;;;;9.50;5.22;;;12.20;99.90;;;;;;5108544;28;20050;-84
2022/06/15 00:57:57;;;;;;;8.55;5.13;;;12.40;99.90;;;;;;5107691;28;20059;-84
2022/06/15 01:00:23;;;;;;;11.13;5.25;;;12.10;99.90;;;;;;5107584;28;20044;-84
2022/06/15 01:02:49;;;;;;;14.70;4.95;;;12.10;99.90;;;;;;5107406;28;20132;-83
2022/06/15 01:05:23;;;;;;;6.50;4.18;;;12.00;99.90;;;;;;5108110;28;20396;-83
2022/06/15 01:07:49;;;;;;;10.77;4.90;;;12.00;99.90;;;;;;5106843;28;20100;-83
2022/06/15 01:10:18;;;;;;;7.90;4.35;;;12.00;99.90;;;;;;5107893;28;20039;-84
2022/06/15 01:13:00;;;;;;;6.40;3.63;;;11.90;99.90;;;;;;5106576;28;20089;-84
2022/06/15 01:22:17;;;;;;;7.30;3.90;;;11.80;99.90;;;;;;5106527;28;20036;-84
2022/06/15 01:25:13;;;;;;;5.60;3.45;;;11.80;99.90;;;;;;5030444;28;20097;-84
2022/06/15 01:27:56;;;;;;;8.13;4.07;;;11.80;99.90;;;;;;5048999;28;20056;-84
2022/06/15 01:30:43;;;;;;;4.28;2.75;;;11.70;99.90;;;;;;5032196;28;20044;-83
2022/06/15 01:33:34;;;;;;;6.10;3.15;;;11.70;99.90;;;;;;5031093;28;20059;-83
2022/06/15 01:36:36;;;;;;;9.60;3.83;;;11.60;99.90;;;;;;5032402;28;20436;-83
2022/06/15 01:39:12;;;;;;;6.20;3.65;;;11.70;99.90;;;;;;5048145;28;20055;-83
2022/06/15 01:41:56;;;;;;;7.15;3.60;;;11.80;99.90;;;;;;5030955;28;20067;-84
2022/06/15 01:44:56;;;;;;;7.90;3.25;;;11.20;99.90;;;;;;5048337;28;20148;-84
2022/06/15 01:47:27;;;;;;;5.78;3.40;;;11.50;99.90;;;;;;4990039;28;20090;-84
2022/06/15 01:50:11;;;;;;;4.57;3.33;;;11.50;99.90;;;;;;5030953;28;20129;-84
2022/06/15 01:52:50;;;;;;;9.30;3.00;;;11.50;99.90;;;;;;5048010;28;20040;-83
2022/06/15 01:55:25;;;;;;;9.05;3.65;;;11.50;99.90;;;;;;5048252;28;20090;-84
2022/06/15 01:57:58;;;;;;;9.27;4.10;;;11.40;99.90;;;;;;5089906;28;20450;-83
2022/06/15 02:00:24;;;;;;;7.05;3.83;;;11.40;99.90;;;;;;5106419;28;20484;-84
2022/06/15 02:03:26;;;;;;;9.30;3.70;;;11.40;99.90;;;;;;5072259;28;20075;-83
2022/06/15 02:06:01;;;;;;;6.43;4.05;;;11.30;99.90;;;;;;5089329;28;20070;-84
2022/06/15 02:08:33;;;;;;;6.20;3.50;;;11.40;99.90;;;;;;5105531;28;20213;-84
2022/06/15 02:11:15;;;;;;;6.93;3.35;;;11.30;99.90;;;;;;5089647;28;20058;-83
2022/06/15 02:13:54;;;;;;;4.97;3.13;;;11.30;99.90;;;;;;5106495;28;20054;-84
2022/06/15 02:16:40;;;;;;;7.10;3.20;;;11.30;99.90;;;;;;5105144;28;20294;-84
2022/06/15 02:19:10;;;;;;;10.43;3.47;;;11.20;99.90;;;;;;5089542;28;20083;-84
2022/06/15 02:21:38;;;;;;;14.43;3.95;;;11.20;99.90;;;;;;5105650;28;20051;-84
2022/06/15 02:24:05;;;;;;;3.92;2.80;;;11.20;99.90;;;;;;5089090;28;20089;-83
2022/06/15 02:26:34;;;;;;;5.55;3.08;;;11.10;99.90;;;;;;5089884;28;20039;-84
2022/06/15 02:29:04;;;;;;;7.13;3.92;;;11.30;99.90;;;;;;5105279;28;20131;-84
2022/06/15 02:31:30;;;;;;;8.15;3.03;;;11.10;99.90;;;;;;5106610;28;20123;-84
2022/06/15 02:33:57;;;;;;;5.10;3.22;;;11.10;99.90;;;;;;5105244;28;20474;-84
2022/06/15 02:36:26;;;;;;;5.28;2.63;;;11.90;99.90;;;;;;5108409;28;20043;-84
2022/06/15 02:38:52;;;;;;;9.40;3.17;;;11.50;99.90;;;;;;5110294;28;20047;-84
2022/06/15 02:41:19;;;;;;;6.15;3.38;;;11.00;99.90;;;;;;5093030;28;20151;-83
2022/06/15 02:43:48;;;;;;;7.40;3.50;;;11.10;99.90;;;;;;5093403;28;20051;-84
2022/06/15 02:46:17;;;;;;;6.10;2.72;;;11.20;99.90;;;;;;5109771;28;20038;-84
2022/06/15 02:48:43;;;;;;;4.82;2.78;;;11.10;99.90;;;;;;5110289;28;20530;-83
2022/06/15 02:51:32;;;;;;;5.88;3.30;;;11.10;99.90;;;;;;5058112;28;20051;-84
2022/06/15 02:54:10;;;;;;;8.27;3.65;;;11.10;99.90;;;;;;5108991;28;20056;-84
2022/06/15 02:56:37;;;;;;;2.92;2.38;;;11.20;99.90;;;;;;5110050;28;20040;-83
2022/06/15 02:59:06;;;;;;;7.95;3.20;;;11.20;99.90;;;;;;5092374;28;20061;-84
2022/06/15 03:01:35;;;;;;;5.28;3.10;;;11.30;99.90;;;;;;5110747;28;20043;-83
2022/06/15 03:04:01;;;;;;;5.88;2.90;;;11.30;99.90;;;;;;5109755;28;20048;-83
2022/06/15 03:06:29;;;;;;;12.63;3.78;;;11.70;99.90;;;;;;5111687;28;20105;-84
2022/06/15 03:08:57;;;;;;;7.20;3.78;;;11.60;99.90;;;;;;5113279;28;20097;-84
2022/06/15 03:11:26;;;;;;;7.55;3.20;;;11.40;99.90;;;;;;5094739;28;20070;-84
2022/06/15 03:13:52;;;;;;;4.35;3.80;;;11.90;99.90;;;;;;5093453;28;20047;-84
2022/06/15 03:16:19;;;;;;;6.28;3.13;;;11.20;99.90;;;;;;5092142;28;20044;-83
2022/06/15 03:18:45;;;;;;;3.50;2.65;;;11.50;99.90;;;;;;5075809;28;20040;-83
2022/06/15 03:21:11;;;;;;;6.07;3.03;;;11.60;99.90;;;;;;5109129;28;20400;-84
2022/06/15 03:23:37;;;;;;;4.13;3.40;;;11.70;99.90;;;;;;5092966;28;20167;-83
2022/06/15 03:26:04;;;;;;;7.20;3.97;;;12.20;99.90;;;;;;5109275;28;20043;-84
2022/06/15 03:28:30;;;;;;;6.20;2.95;;;11.60;99.90;;;;;;5109384;28;20067;-83
2022/06/15 03:30:57;;;;;;;4.47;3.58;;;12.40;99.90;;;;;;5109810;28;20046;-83
2022/06/15 03:33:23;;;;;;;12.15;3.92;;;11.70;99.90;;;;;;5108236;28;20492;-83
2022/06/15 03:35:50;;;;;;;4.53;2.70;;;11.70;99.90;;;;;;5109815;28;20438;-84
2022/06/15 03:38:15;;;;;;;7.20;4.00;;;11.70;99.90;;;;;;5091210;28;20035;-83
2022/06/15 03:40:46;;;;;;;5.00;3.47;;;11.80;99.90;;;;;;5092003;28;20116;-83
2022/06/15 03:43:14;;;;;;;5.57;3.35;;;11.80;99.90;;;;;;5092113;28;20067;-84
2022/06/15 03:45:42;;;;;;;5.60;2.92;;;11.90;99.90;;;;;;5092075;28;20039;-83
2022/06/15 03:48:08;;;;;;;7.13;3.35;;;11.90;99.90;;;;;;5091507;28;20139;-84
2022/06/15 03:50:35;;;;;;;7.28;3.70;;;12.00;99.90;;;;;;5108076;28;20096;-83
2022/06/15 03:53:02;;;;;;;7.18;4.07;;;12.00;99.90;;;;;;5092225;28;20047;-84
2022/06/15 03:55:29;;;;;;;6.38;3.90;;;12.00;99.90;;;;;;5107673;28;20530;-84
2022/06/15 03:57:55;;;;;;;5.18;3.03;;;12.10;99.90;;;;;;5113895;28;20569;-84
2022/06/15 04:00:26;;;;;;;9.10;3.72;;;12.40;99.90;;;;;;5113211;28;20134;-84
2022/06/15 04:02:53;;;;;;;5.65;3.40;;;12.20;99.90;;;;;;5108350;28;20496;-84
2022/06/15 04:05:23;;;;;;;5.63;3.42;;;12.30;99.90;;;;;;5091739;28;20484;-84
2022/06/15 04:10:35;;;;;;;7.30;3.75;;;12.40;99.90;;;;;;5108966;28;20127;-84
2022/06/15 04:13:01;;;;;;;8.07;3.40;;;12.40;99.90;;;;;;5074689;28;20408;-84
2022/06/15 04:15:27;;;;;;;5.40;3.22;;;12.50;99.90;;;;;;5091980;28;20044;-84
2022/06/15 04:17:53;;;;;;;6.45;3.33;;;12.60;99.90;;;;;;5074978;28;20494;-85
2022/06/15 04:20:37;;;;;;;4.82;3.05;;;12.60;99.90;;;;;;5107609;28;20159;-83
2022/06/15 04:23:09;;;;;;;11.52;3.38;;;12.70;99.90;;;;;;5108356;28;20044;-85
2022/06/15 04:25:40;;;;;;;9.63;3.67;;;12.70;99.90;;;;;;5108128;28;20043;-85
2022/06/15 04:28:08;;;;;;;6.53;3.28;;;12.80;99.90;;;;;;5091298;28;20289;-85
2022/06/15 04:30:34;;;;;;;7.97;3.28;;;12.90;99.90;;;;;;5091561;28;20464;-84
2022/06/15 04:33:00;;;;;;;4.47;2.55;;;12.90;99.90;;;;;;5090295;28;20122;-83
2022/06/15 04:35:26;;;;;;;5.38;3.85;;;12.90;99.90;;;;;;5091609;28;20175;-84
2022/06/15 04:37:52;;;;;;;8.15;4.03;;;13.00;99.90;;;;;;5056511;28;20517;-84
2022/06/15 04:40:18;;;;;;;5.95;3.45;;;13.00;99.90;;;;;;5091417;28;20059;-84
2022/06/15 04:42:44;;;;;;;5.57;3.38;;;13.10;99.90;;;;;;5107105;28;20492;-83
2022/06/15 04:45:11;;;;;;;5.63;3.10;;;13.20;99.90;;;;;;5107935;28;20047;-83
2022/06/15 04:47:37;;;;;;;7.05;3.47;;;13.20;99.90;;;;;;5107618;28;20492;-84
2022/06/15 04:50:05;;;;;;;7.78;3.45;;;13.20;99.90;;;;;;5107482;28;20389;-81
2022/06/15 04:52:31;;;;;;;5.57;3.88;;;13.30;99.90;;;;;;5091358;28;20149;-82
2022/06/15 04:54:57;;;;;;;7.20;4.63;;;13.50;99.90;;;;;;5073520;28;20499;-83
2022/06/15 04:57:25;;;;;;;4.63;3.30;;;13.40;99.90;;;;;;5091849;28;20039;-84
2022/06/15 04:59:54;;;;;;;5.25;3.33;;;13.70;99.90;;;;;;5073170;28;20135;-85
2022/06/15 05:02:19;;;;;;;8.40;3.85;;;13.50;99.90;;;;;;5092075;28;20035;-83
2022/06/15 05:04:45;;;;;;;5.75;3.45;;;13.60;99.90;;;;;;5092152;28;20047;-84
2022/06/15 05:07:11;;;;;;;7.25;2.72;;;13.60;99.90;;;;;;5090945;28;20131;-85
2022/06/15 05:09:37;;;;;;;7.15;3.55;;;13.70;99.90;;;;;;5090783;28;20104;-83
2022/06/15 05:12:03;;;;;;;6.72;3.55;;;13.80;99.90;;;;;;5073069;28;20043;-85
2022/06/15 05:14:31;;;;;;;3.58;3.03;;;13.90;99.90;;;;;;5109525;28;20512;-86
2022/06/15 05:16:57;;;;;;;6.75;3.50;;;13.90;99.90;;;;;;5106284;28;20043;-83
2022/06/15 05:19:23;;;;;;;6.55;3.53;;;14.00;99.90;;;;;;5107673;28;20051;-83
2022/06/15 05:21:49;;;;;;;8.02;3.85;;;14.00;99.90;;;;;;5107555;28;20426;-82
2022/06/15 05:24:14;;;;;;;9.38;3.65;;;13.50;99.90;;;;;;5073155;28;20101;-84
2022/06/15 05:26:40;;;;;;;6.40;3.42;;;14.10;99.90;;;;;;5073409;28;20489;-82
2022/06/15 05:29:06;;;;;;;7.82;3.03;;;14.10;99.90;;;;;;5106223;28;20046;-84
2022/06/15 05:31:32;;;;;;;5.88;2.80;;;14.10;99.90;;;;;;5090755;28;20454;-82
2022/06/15 05:33:58;;;;;;;6.68;3.20;;;14.20;99.90;;;;;;5106074;28;20540;-82
2022/06/15 05:36:27;;;;;;;5.75;3.13;;;14.30;99.90;;;;;;5090145;28;20103;-81
2022/06/15 05:38:53;;;;;;;6.72;3.85;;;14.30;99.90;;;;;;5107140;28;20063;-81
2022/06/15 05:41:19;;;;;;;3.78;3.05;;;14.30;99.90;;;;;;5072996;28;20404;-83
2022/06/15 05:43:56;;;;;;;5.60;2.65;;;14.40;99.90;;;;;;5073941;28;20040;-83
2022/06/15 05:46:34;;;;;;;4.28;2.88;;;14.40;99.90;;;;;;5090635;28;20507;-85
2022/06/15 05:49:01;;;;;;;6.28;3.50;;;14.70;99.90;;;;;;5090459;28;20044;-79
2022/06/15 05:51:28;;;;;;;5.68;3.15;;;14.60;99.90;;;;;;5106187;28;20534;-84
2022/06/15 05:53:54;;;;;;;4.82;2.70;;;14.80;99.90;;;;;;5073263;28;20063;-85
2022/06/15 05:56:25;;;;;;;6.43;3.03;;;14.90;99.90;;;;;;5106855;28;20530;-85
2022/06/15 05:58:51;;;;;;;5.25;2.78;;;15.00;99.90;;;;;;5106058;28;20046;-85
2022/06/15 06:01:30;;;;;;;5.40;2.95;;;15.20;99.90;;;;;;5073421;28;20048;-84
2022/06/15 06:03:56;;;;;;;4.75;2.40;;;15.30;99.90;;;;;;5105953;28;20048;-85
2022/06/15 06:06:25;;;;;;;5.80;2.70;;;15.40;99.90;;;;;;5106979;28;20399;-85
2022/06/15 06:08:51;;;;;;;5.57;2.45;;;15.60;99.90;;;;;;5089257;28;20043;-85
2022/06/15 06:11:17;;;;;;;6.75;2.28;;;15.70;99.90;;;;;;5106294;28;20039;-85
2022/06/15 06:13:43;;;;;;;6.70;2.33;;;15.80;99.90;;;;;;5090501;28;20043;-86
2022/06/15 06:16:09;;;;;;;6.32;3.33;;;15.90;99.90;;;;;;5072072;28;20055;-85
2022/06/15 06:18:35;;;;;;;7.78;2.67;;;16.00;99.90;;;;;;5090386;28;20035;-85
2022/06/15 06:21:01;;;;;;;5.53;2.63;;;16.10;99.90;;;;;;5071960;28;20385;-85
2022/06/15 06:23:26;;;;;;;6.32;2.85;;;16.30;99.90;;;;;;5106977;28;20134;-85
2022/06/15 06:25:55;;;;;;;4.32;2.47;;;16.40;99.90;;;;;;5106199;28;20520;-85
2022/06/15 06:28:26;;;;;;;10.18;2.58;;;16.50;99.90;;;;;;5089829;28;20761;-85
2022/06/15 06:30:57;;;;;;;6.80;1.90;;;16.70;99.90;;;;;;5090246;28;20514;-86
2022/06/15 06:33:27;;;;;;;4.60;1.90;;;16.90;99.90;;;;;;5106029;28;20039;-85
2022/06/15 06:35:54;;;;;;;4.25;2.20;;;17.00;99.90;;;;;;5090500;28;20069;-85
2022/06/15 06:38:21;;;;;;;6.70;2.63;;;17.20;99.90;;;;;;5073254;28;20051;-85
2022/06/15 06:40:53;;;;;;;5.20;1.75;;;17.40;99.90;;;;;;5076120;28;20492;-85
2022/06/15 06:43:19;;;;;;;4.13;2.45;;;17.60;99.90;;;;;;5095590;28;20040;-85
2022/06/15 06:45:45;;;;;;;3.53;1.77;;;17.70;99.90;;;;;;5094210;28;20044;-85
2022/06/15 06:48:11;;;;;;;5.10;2.05;;;17.90;99.90;;;;;;5091687;28;20054;-86
2022/06/15 06:50:39;;;;;;;6.60;2.22;;;18.10;99.90;;;;;;5091897;28;20043;-85
2022/06/15 06:53:05;;;;;;;4.55;1.65;;;18.20;99.90;;;;;;5093232;28;20040;-86
2022/06/15 06:55:31;;;;;;;2.53;1.33;;;18.40;99.90;;;;;;5108931;28;20203;-86
2022/06/15 06:57:59;;;;;;;3.20;1.38;;;18.50;99.90;;;;;;5094573;28;20556;-86
2022/06/15 07:00:26;;;;;;;3.22;1.45;;;18.60;99.90;;;;;;5124725;28;20055;-85
2022/06/15 07:02:52;;;;;;;3.53;1.35;;;18.60;99.90;;;;;;5098246;28;20047;-85
2022/06/15 07:05:19;;;;;;;4.10;1.58;;;18.60;99.90;;;;;;5108270;28;20048;-86
2022/06/15 07:07:45;;;;;;;4.75;1.50;;;18.70;99.90;;;;;;5124431;28;20080;-85
2022/06/15 07:10:12;;;;;;;4.25;1.70;;;18.80;99.90;;;;;;5107183;28;20587;-86
2022/06/15 07:12:42;;;;;;;4.05;1.60;;;18.80;99.90;;;;;;5124922;28;20148;-85
2022/06/15 07:15:08;;;;;;;4.07;1.30;;;18.90;99.90;;;;;;5128096;28;20044;-86
2022/06/15 07:17:34;;;;;;;3.47;1.80;;;18.90;99.90;;;;;;5094224;28;20464;-86
2022/06/15 07:20:00;;;;;;;5.30;1.90;;;19.00;99.90;;;;;;5125607;28;20059;-86
2022/06/15 07:22:26;;;;;;;6.00;1.38;;;19.00;99.90;;;;;;5106172;28;20043;-83
2022/06/15 07:24:51;;;;;;;3.65;1.30;;;19.10;99.90;;;;;;5100706;28;20179;-85
2022/06/15 07:27:18;;;;;;;3.75;1.30;;;19.20;99.90;;;;;;5103359;28;20062;-83
2022/06/15 07:29:46;;;;;;;4.97;1.60;;;19.20;99.90;;;;;;5110712;28;20031;-83
2022/06/15 07:32:14;;;;;;;4.88;1.38;;;19.30;99.90;;;;;;5110587;28;20051;-84
2022/06/15 07:34:40;;;;;;;3.17;1.08;;;19.30;99.90;;;;;;5109819;28;20039;-84
2022/06/15 07:37:07;;;;;;;5.10;1.55;;;19.30;99.90;;;;;;5110883;28;20048;-84
2022/06/15 07:39:33;;;;;;;5.00;1.50;;;19.40;99.90;;;;;;5093265;28;20043;-83
2022/06/15 07:41:58;;;;;;;3.70;1.00;;;19.40;99.90;;;;;;5108041;28;20051;-83
2022/06/15 07:44:25;;;;;;;4.65;1.20;;;19.40;99.90;;;;;;5093464;28;20130;-84
2022/06/15 07:52:43;;;;;;;2.78;1.40;;;19.30;99.90;;;;;;5109301;28;20054;-83
2022/06/15 07:55:11;;;;;;;3.10;1.25;;;19.30;99.90;;;;;;5107803;28;20047;-83
2022/06/15 07:57:37;;;;;;;3.45;1.38;;;19.20;99.90;;;;;;5109122;28;20155;-84
2022/06/15 08:00:06;;;;;;;9.93;1.52;;;19.20;99.90;;;;;;5091373;28;20076;-83
2022/06/15 08:02:32;;;;;;;2.08;0.77;;;19.40;99.90;;;;;;5092395;28;20395;-84
2022/06/15 08:04:57;;;;;;;5.65;1.42;;;19.60;99.90;;;;;;5109186;28;20043;-84
2022/06/15 08:07:23;;;;;;;2.70;0.90;;;19.90;99.90;;;;;;5091500;28;20040;-84
2022/06/15 08:09:49;;;;;;;5.03;1.08;;;20.20;99.90;;;;;;5108770;28;20051;-83
2022/06/15 08:12:16;;;;;;;4.70;1.40;;;20.50;99.90;;;;;;5090626;28;20075;-84
2022/06/15 08:14:48;;;;;;;2.03;1.08;;;20.60;99.90;;;;;;5092119;28;20111;-84
2022/06/15 08:17:20;;;;;;;3.65;1.02;;;20.70;99.90;;;;;;5107878;28;20139;-84
2022/06/15 08:19:50;;;;;;;4.60;1.40;;;20.90;99.90;;;;;;5108535;28;20043;-84
2022/06/15 08:22:17;;;;;;;2.83;1.17;;;20.90;99.90;;;;;;5108987;28;20083;-84
2022/06/15 08:24:45;;;;;;;5.85;1.58;;;20.80;99.90;;;;;;5106818;28;20048;-84
2022/06/15 08:27:13;;;;;;;2.85;0.90;;;20.60;99.90;;;;;;5108349;28;20172;-84
2022/06/15 08:29:40;;;;;;;3.97;1.73;;;20.50;99.90;;;;;;5108617;28;20039;-84
2022/06/15 08:32:07;;;;;;;9.13;1.13;;;20.40;99.90;;;;;;5108325;28;20036;-84
2022/06/15 08:34:37;;;;;;;5.35;1.17;;;20.40;99.90;;;;;;5108018;28;20601;-83
2022/06/15 08:37:05;;;;;;;3.25;1.10;;;20.40;99.90;;;;;;5109603;28;20051;-83
2022/06/15 08:39:31;;;;;;;2.47;1.27;;;20.50;99.90;;;;;;5108709;28;20059;-83
2022/06/15 08:42:18;;;;;;;5.38;1.15;;;20.80;99.90;;;;;;5107008;28;20442;-83
2022/06/15 08:45:11;;;;;;;2.42;1.20;;;21.10;99.90;;;;;;5109938;28;20408;-84
2022/06/15 08:48:09;;;;;;;2.35;0.85;;;21.30;99.90;;;;;;5091448;28;20675;-84
2022/06/15 08:50:48;;;;;;;4.18;0.90;;;21.30;99.90;;;;;;5107033;28;20083;-83
2022/06/15 08:53:22;;;;;;;3.03;0.90;;;21.30;99.90;;;;;;5108554;28;20035;-84
2022/06/15 08:56:04;;;;;;;5.10;1.00;;;21.40;99.90;;;;;;5090902;28;20046;-83
2022/06/15 08:58:50;;;;;;;2.10;0.80;;;21.60;99.90;;;;;;5107544;28;20048;-84
2022/06/15 09:01:28;;;;;;;2.50;0.77;;;21.90;99.90;;;;;;5107789;28;20047;-84
2022/06/15 09:04:20;;;;;;;2.13;0.88;;;22.20;99.90;;;;;;5106889;28;20048;-84
2022/06/15 09:07:16;;;;;;;5.28;1.20;;;22.50;99.90;;;;;;5091010;28;20404;-84
2022/06/15 09:09:49;;;;;;;2.25;0.88;;;22.70;99.90;;;;;;5107783;28;20054;-84
2022/06/15 09:15:44;;;;;;;2.30;0.45;;;22.40;99.90;;;;;;5107247;28;20105;-84
2022/06/15 09:18:45;;;;;;;3.35;0.80;;;22.30;99.90;;;;;;5094268;28;20090;-84
2022/06/15 09:21:14;;;;;;;2.30;0.88;;;22.10;99.60;;;;;;5076039;28;20055;-84
2022/06/15 09:23:49;;;;;;;2.60;0.75;;;21.90;99.90;;;;;;5107347;28;20556;-84
2022/06/15 09:26:33;;;;;;;2.60;0.68;;;21.90;99.90;;;;;;5107653;28;20511;-84
2022/06/15 09:29:06;;;;;;;4.32;1.20;;;21.80;99.90;;;;;;5106599;28;20400;-84
2022/06/15 09:32:02;;;;;;;3.58;0.65;;;21.60;99.90;;;;;;5107661;28;20093;-84
2022/06/15 09:34:36;;;;;;;2.05;0.70;;;21.60;99.90;;;;;;5089850;28;20050;-84
2022/06/15 09:37:08;;;;;;;1.80;0.70;;;21.70;99.90;;;;;;5106891;28;20058;-84
2022/06/15 09:39:36;;;;;;;2.78;0.95;;;22.00;99.90;;;;;;5090315;28;20049;-84
2022/06/15 09:42:22;;;;;;;4.00;0.70;;;22.30;99.40;;;;;;5105515;28;20125;-84
2022/06/15 09:45:00;;;;;;;5.53;1.00;;;22.50;98.60;;;;;;5106490;28;20605;-85
2022/06/15 09:47:58;;;;;;;5.93;1.13;;;22.60;96.60;;;;;;5106663;28;20071;-84
2022/06/15 09:50:43;;;;;;;2.78;0.80;;;22.60;96.40;;;;;;5088845;28;20061;-84
2022/06/15 09:53:21;;;;;;;4.30;1.00;;;22.60;97.10;;;;;;5090365;28;20400;-84
2022/06/15 09:55:58;;;;;;;3.83;0.90;;;22.80;98.20;;;;;;5089741;28;20050;-84
2022/06/15 09:58:36;;;;;;;2.45;0.82;;;23.20;97.70;;;;;;5106712;28;20413;-84
2022/06/15 10:01:03;;;;;;;2.22;0.63;;;23.50;96.10;;;;;;5106850;28;20126;-86
2022/06/15 10:03:32;;;;;;;4.22;1.08;;;23.60;95.50;;;;;;5105714;28;20050;-85
2022/06/15 10:06:39;;;;;;;4.00;1.20;;;23.70;94.50;;;;;;5106991;28;20084;-84
2022/06/15 10:09:09;;;;;;;1.67;0.70;;;23.60;93.10;;;;;;4991559;28;20529;-83
2022/06/15 10:11:38;;;;;;;3.10;0.70;;;23.50;93.20;;;;;;5007808;28;20041;-83
2022/06/15 10:14:25;;;;;;;4.13;0.95;;;23.40;93.10;;;;;;5056132;28;20376;-84
2022/06/15 10:17:05;;;;;;;3.90;0.82;;;23.20;90.50;;;;;;5088206;28;20091;-84
2022/06/15 10:19:34;;;;;;;2.35;0.82;;;23.00;92.30;;;;;;5107044;28;20460;-84
2022/06/15 10:22:09;;;;;;;2.15;0.77;;;22.90;93.40;;;;;;5089204;28;20040;-84
2022/06/15 10:24:40;;;;;;;3.15;1.02;;;22.80;92.20;;;;;;5105852;28;20414;-83
2022/06/15 10:27:24;;;;;;;4.78;1.05;;;22.60;92.40;;;;;;5089947;28;20044;-84
2022/06/15 10:30:08;;;;;;;3.38;1.17;;;22.70;92.60;;;;;;5105350;28;20051;-83
2022/06/15 10:32:36;;;;;;;2.47;0.80;;;23.00;89.20;;;;;;5088588;28;20089;-84
2022/06/15 10:35:18;;;;;;;9.30;1.70;;;23.10;90.40;;;;;;5089538;28;20431;-83
2022/06/15 10:37:45;;;;;;;0.82;0.45;;;23.20;91.10;;;;;;5088233;28;20195;-83
2022/06/15 10:40:20;;;;;;;3.30;0.82;;;23.10;90.80;;;;;;5106831;28;20055;-84
2022/06/15 10:42:51;;;;;;;2.60;1.05;;;22.80;87.50;;;;;;5105177;28;20055;-84
2022/06/15 10:45:23;;;;;;;4.15;0.80;;;22.50;87.60;;;;;;5106764;28;20051;-83
2022/06/15 10:48:04;;;;;;;3.42;0.90;;;22.40;89.90;;;;;;5089956;28;20407;-85
2022/06/15 10:50:48;;;;;;;3.13;0.90;;;22.30;90.40;;;;;;5090589;28;20052;-84
2022/06/15 10:53:35;;;;;;;3.17;1.05;;;22.20;89.90;;;;;;5106951;28;20039;-82
2022/06/15 11:04:33;;;;;;;5.55;1.17;;;22.30;91.80;;;;;;5109123;28;20054;-81
2022/06/15 11:07:01;;;;;;;4.78;2.05;;;22.20;92.20;;;;;;5109535;28;20104;-81
2022/06/15 11:09:43;;;;;;;3.70;1.48;;;22.10;92.60;;;;;;5093255;28;20201;-84
2022/06/15 11:12:33;;;;;;;3.78;1.23;;;22.10;93.70;;;;;;5110022;28;20082;-84
2022/06/15 11:15:19;;;;;;;3.50;1.25;;;22.20;94.40;;;;;;5109844;28;20134;-81
2022/06/15 11:18:02;;;;;;;5.30;1.25;;;22.50;93.80;;;;;;5111103;28;20051;-81
2022/06/15 11:20:41;;;;;;;6.55;1.42;;;22.70;93.00;;;;;;5093235;28;20039;-82
2022/06/15 11:23:19;;;;;;;3.78;1.40;;;23.00;93.30;;;;;;5109902;28;20123;-81
2022/06/15 11:26:51;;;;;;;2.35;0.95;;;23.20;92.50;;;;;;5108602;28;20048;-81
2022/06/15 11:28:52;;;;;;;3.05;1.63;;;23.50;93.30;;;;;;5108574;28;20058;-81
2022/06/15 11:31:24;;;;;;;6.60;1.20;;;23.60;90.80;;;;;;5109756;28;20051;-81
2022/06/15 11:33:57;;;;;;;5.30;1.38;;;23.70;91.10;;;;;;5109059;28;20043;-88
2022/06/15 11:36:32;;;;;;;5.53;1.13;;;23.80;89.30;;;;;;5110824;28;20075;-88
2022/06/15 11:39:17;;;;;;;2.22;1.17;;;23.80;83.90;;;;;;5093165;28;20054;-87
2022/06/15 11:41:53;;;;;;;3.28;1.33;;;23.80;80.30;;;;;;5109539;28;20064;-88
2022/06/15 11:44:31;;;;;;;3.25;1.48;;;23.80;84.30;;;;;;5110555;28;20035;-88
2022/06/15 11:47:06;;;;;;;3.88;1.40;;;23.90;84.30;;;;;;5108511;28;20118;-87
2022/06/15 11:50:05;;;;;;;5.25;1.38;;;24.10;84.50;;;;;;5109419;28;20050;-88
2022/06/15 11:52:49;;;;;;;2.95;1.48;;;24.30;80.10;;;;;;5092555;28;20039;-88
2022/06/15 11:55:23;;;;;;;3.53;1.73;;;24.60;78.50;;;;;;5107877;28;20079;-87
2022/06/15 11:58:24;;;;;;;4.60;1.60;;;24.70;79.20;;;;;;5092049;28;20044;-88
2022/06/15 12:01:05;;;;;;;1.77;0.95;;;24.70;68.80;;;;;;5109368;28;20044;-85
2022/06/15 12:04:09;;;;;;;1.92;1.10;;;24.90;67.50;;;;;;5107749;28;20043;-86
2022/06/15 12:06:56;;;;;;;2.70;1.42;;;24.90;71.30;;;;;;5092465;28;20043;-87
2022/06/15 12:09:41;;;;;;;2.80;1.13;;;24.70;64.50;;;;;;5091269;28;20474;-87
2022/06/15 12:12:37;;;;;;;2.28;1.30;;;24.50;65.70;;;;;;5090229;28;20047;-86
2022/06/15 12:15:12;;;;;;;3.00;1.48;;;24.20;66.30;;;;;;5109123;28;20077;-88
2022/06/15 12:17:49;;;;;;;3.17;1.55;;;23.90;68.20;;;;;;5091096;28;20082;-83
2022/06/15 12:20:26;;;;;;;3.20;1.50;;;23.90;69.80;;;;;;5108362;28;20134;-81
2022/06/15 12:22:59;;;;;;;3.58;1.30;;;24.00;68.10;;;;;;5110313;28;20428;-84
2022/06/15 12:25:43;;;;;;;2.70;1.45;;;24.20;64.80;;;;;;5090886;28;20047;-83
2022/06/15 12:28:34;;;;;;;3.75;1.65;;;23.90;62.30;;;;;;5110511;28;20044;-84
2022/06/15 12:31:15;;;;;;;2.15;1.20;;;23.70;64.90;;;;;;5110280;28;20035;-86
2022/06/15 12:34:19;;;;;;;3.00;1.33;;;23.60;66.20;;;;;;5090961;28;20043;-85
2022/06/15 12:36:47;;;;;;;2.70;1.27;;;23.60;62.90;;;;;;5092679;28;20492;-87
2022/06/15 12:39:19;;;;;;;2.38;1.10;;;23.70;65.20;;;;;;5091977;28;20075;-86
2022/06/15 12:44:38;;;;;;;3.00;1.23;;;24.30;65.30;;;;;;5112844;28;20281;-85
2022/06/15 12:47:12;;;;;;;3.63;1.25;;;24.40;64.00;;;;;;5110453;28;20051;-86
2022/06/15 12:50:12;;;;;;;1.77;0.93;;;24.30;64.50;;;;;;5092489;28;20404;-87
2022/06/15 12:52:43;;;;;;;3.33;1.17;;;24.40;58.20;;;;;;5108874;28;20083;-86
2022/06/15 12:55:13;;;;;;;4.82;1.95;;;24.20;62.30;;;;;;5090617;28;20032;-87
2022/06/15 12:58:20;;;;;;;4.25;1.90;;;24.10;61.60;;;;;;5092074;28;20074;-86
2022/06/15 13:00:49;;;;;;;3.92;1.90;;;24.20;59.40;;;;;;5010296;28;20053;-85
2022/06/15 13:03:40;;;;;;;3.22;1.00;;;24.30;62.50;;;;;;5093730;28;20047;-88
2022/06/15 13:06:29;;;;;;;4.70;1.65;;;24.50;61.80;;;;;;5108519;28;20630;-87
2022/06/15 13:09:11;;;;;;;4.38;1.50;;;25.00;60.40;;;;;;5094162;28;20151;-87
2022/06/15 13:12:07;;;;;;;5.57;0.93;;;25.10;58.90;;;;;;5108351;28;20054;-86
2022/06/15 13:14:35;;;;;;;2.67;1.08;;;25.00;56.60;;;;;;5092193;28;20469;-87
2022/06/15 13:17:09;;;;;;;2.40;1.20;;;24.90;59.70;;;;;;5107136;28;20126;-86
2022/06/15 13:19:45;;;;;;;1.98;1.10;;;24.80;57.90;;;;;;5107939;28;20478;-88
2022/06/15 13:22:28;;;;;;;2.17;1.08;;;24.90;57.90;;;;;;5108160;28;20048;-88
2022/06/15 13:25:19;;;;;;;4.63;0.95;;;24.90;55.30;;;;;;5108804;28;20044;-88
2022/06/15 13:28:07;;;;;;;2.22;1.05;;;24.80;53.50;;;;;;5091317;28;20469;-88
2022/06/15 13:30:48;;;;;;;2.97;1.02;;;24.70;54.30;;;;;;5107216;28;20130;-89
2022/06/15 13:33:14;;;;;;;2.13;1.00;;;24.80;56.30;;;;;;5108836;28;20583;-88
2022/06/15 13:35:44;;;;;;;2.88;0.93;;;25.00;55.90;;;;;;5110243;28;20492;-88
2022/06/15 13:38:27;;;;;;;2.90;0.90;;;25.30;55.50;;;;;;5106976;28;20630;-89
2022/06/15 13:40:53;;;;;;;2.58;1.02;;;25.60;53.80;;;;;;5108074;28;20068;-90
2022/06/15 13:43:31;;;;;;;1.67;0.88;;;25.50;52.80;;;;;;5090129;28;20044;-88
2022/06/15 13:46:20;;;;;;;3.60;0.73;;;25.30;51.90;;;;;;5089918;28;20654;-88